createdAt,value
2019-03-25T00:00:03.485Z,42.10
2019-03-25T00:02:34.268Z,44.10
2019-03-25T00:05:05.676Z,43.30
2019-03-25T00:07:36.525Z,43.10
2019-03-25T00:10:07.976Z,42.90
2019-03-25T00:12:39.030Z,44.07
2019-03-25T00:15:09.949Z,44.87
2019-03-25T00:17:40.736Z,43.70
2019-03-25T00:20:14.735Z,48.03
2019-03-25T00:22:45.513Z,43.30
2019-03-25T00:25:16.315Z,40.83
2019-03-25T00:27:47.198Z,41.00
2019-03-25T00:30:18.169Z,42.05
2019-03-25T00:32:49.044Z,40.47
2019-03-25T00:35:19.867Z,45.20
2019-03-25T00:37:50.726Z,44.10
2019-03-25T00:40:21.675Z,45.10
2019-03-25T00:42:54.785Z,41.57
2019-03-25T00:45:25.519Z,40.80
2019-03-25T00:47:56.300Z,41.50
2019-03-25T00:50:27.113Z,40.67
2019-03-25T00:52:57.984Z,47.00
2019-03-25T00:55:28.893Z,40.50
2019-03-25T00:57:59.676Z,43.67
2019-03-25T01:00:30.828Z,45.83
2019-03-25T01:03:01.792Z,49.30
2019-03-25T01:05:33.931Z,41.60
2019-03-25T01:08:05.352Z,45.00
2019-03-25T01:10:36.312Z,42.23
2019-03-25T01:13:07.178Z,41.30
2019-03-25T01:15:38.172Z,43.17
2019-03-25T01:18:16.806Z,44.20
2019-03-25T01:20:41.566Z,42.23
2019-03-25T01:23:12.277Z,42.57
2019-03-25T01:25:44.144Z,40.30
2019-03-25T01:28:15.007Z,41.17
2019-03-25T01:30:45.825Z,40.03
2019-03-25T01:33:16.811Z,41.83
2019-03-25T01:35:47.607Z,40.90
2019-03-25T01:38:18.567Z,44.50
2019-03-25T01:40:49.361Z,41.20
2019-03-25T01:43:20.204Z,44.20
2019-03-25T01:45:51.301Z,42.90
2019-03-25T01:48:22.216Z,48.13
2019-03-25T01:50:54.313Z,41.90
2019-03-25T01:53:25.098Z,43.00
2019-03-25T01:55:55.894Z,42.33
2019-03-25T01:58:27.105Z,42.20
2019-03-25T02:00:58.155Z,42.70
2019-03-25T02:03:28.892Z,45.83
2019-03-25T02:05:59.815Z,43.00
2019-03-25T02:08:30.661Z,44.37
2019-03-25T02:11:01.622Z,44.47
2019-03-25T02:13:32.590Z,41.73
2019-03-25T02:16:03.673Z,41.57
2019-03-25T02:18:34.805Z,42.77
2019-03-25T02:21:08.713Z,44.03
2019-03-25T02:23:42.826Z,43.07
2019-03-25T02:26:13.694Z,45.77
2019-03-25T02:28:44.571Z,44.17
2019-03-25T02:31:15.440Z,44.17
2019-03-25T02:33:46.361Z,45.50
2019-03-25T02:36:17.206Z,45.27
2019-03-25T02:38:48.004Z,46.07
2019-03-25T02:41:20.220Z,42.63
2019-03-25T02:43:52.725Z,40.07
2019-03-25T02:46:23.544Z,47.75
2019-03-25T02:48:54.321Z,49.30
2019-03-25T02:51:25.154Z,45.40
2019-03-25T02:53:56.115Z,47.47
2019-03-25T02:56:27.032Z,48.40
2019-03-25T02:58:57.861Z,46.50
2019-03-25T03:01:28.675Z,44.20
2019-03-25T03:03:59.616Z,42.30
2019-03-25T03:06:30.686Z,47.27
2019-03-25T03:09:01.673Z,44.03
2019-03-25T03:11:32.578Z,43.70
2019-03-25T03:14:03.486Z,45.50
2019-03-25T03:16:34.285Z,46.80
2019-03-25T03:19:05.617Z,44.90
2019-03-25T03:21:37.253Z,44.53
2019-03-25T03:24:08.125Z,46.35
2019-03-25T03:26:39.059Z,47.87
2019-03-25T03:29:10.040Z,50.87
2019-03-25T03:31:40.920Z,48.47
2019-03-25T03:34:11.647Z,45.87
2019-03-25T03:36:42.530Z,48.27
2019-03-25T03:39:13.273Z,48.15
2019-03-25T03:41:45.287Z,50.33
2019-03-25T03:44:16.155Z,46.67
2019-03-25T03:46:47.081Z,45.77
2019-03-25T03:49:17.779Z,46.43
2019-03-25T03:51:48.771Z,46.07
2019-03-25T03:54:19.824Z,44.65
2019-03-25T03:56:53.540Z,46.80
2019-03-25T03:59:24.974Z,45.53
2019-03-25T04:01:55.786Z,46.03
2019-03-25T04:04:26.535Z,45.00
2019-03-25T04:06:58.482Z,46.60
2019-03-25T04:09:29.522Z,47.33
2019-03-25T04:12:00.490Z,47.17
2019-03-25T04:14:31.472Z,44.23
2019-03-25T04:17:02.271Z,42.87
2019-03-25T04:19:33.060Z,48.10
2019-03-25T04:22:03.793Z,45.35
2019-03-25T04:24:35.362Z,43.80
2019-03-25T04:27:06.447Z,46.30
2019-03-25T04:29:38.115Z,45.15
2019-03-25T04:32:08.844Z,44.53
2019-03-25T04:34:39.569Z,46.30
2019-03-25T04:37:10.281Z,45.80
2019-03-25T04:39:41.118Z,44.90
2019-03-25T04:42:13.056Z,45.30
2019-03-25T04:44:43.854Z,43.53
2019-03-25T04:47:14.679Z,47.33
2019-03-25T04:49:45.508Z,43.50
2019-03-25T04:52:16.309Z,45.60
2019-03-25T04:54:47.208Z,45.17
2019-03-25T04:57:17.917Z,47.10
2019-03-25T04:59:48.711Z,43.60
2019-03-25T05:02:19.651Z,45.10
2019-03-25T05:04:50.438Z,43.10
2019-03-25T05:07:21.937Z,45.67
2019-03-25T05:09:52.689Z,45.53
2019-03-25T05:12:23.520Z,47.00
2019-03-25T05:14:54.295Z,45.73
2019-03-25T05:17:25.077Z,49.13
2019-03-25T05:19:55.911Z,46.18
2019-03-25T05:22:26.748Z,49.23
2019-03-25T05:24:57.610Z,47.60
2019-03-25T05:27:28.565Z,50.70
2019-03-25T05:29:59.311Z,46.17
2019-03-25T05:32:30.106Z,48.10
2019-03-25T05:35:01.037Z,50.17
2019-03-25T05:37:31.835Z,51.37
2019-03-25T05:40:02.814Z,51.03
2019-03-25T05:42:33.703Z,49.47
2019-03-25T05:45:04.930Z,50.17
2019-03-25T05:47:35.727Z,47.60
2019-03-25T05:50:09.040Z,45.83
2019-03-25T05:52:39.876Z,46.30
2019-03-25T05:55:10.847Z,43.00
2019-03-25T05:57:42.378Z,40.07
2019-03-25T06:00:14.277Z,44.23
2019-03-25T06:02:45.153Z,46.87
2019-03-25T06:05:16.037Z,42.83
2019-03-25T06:07:46.975Z,45.23
2019-03-25T06:10:18.109Z,42.33
2019-03-25T06:12:49.057Z,36.60
2019-03-25T06:15:21.204Z,40.20
2019-03-25T06:17:51.935Z,34.93
2019-03-25T06:20:22.826Z,35.03
2019-03-25T06:22:53.723Z,34.43
2019-03-25T06:25:24.487Z,31.57
2019-03-25T06:27:55.379Z,29.73
2019-03-25T06:30:26.313Z,30.63
2019-03-25T06:32:57.204Z,28.50
2019-03-25T06:35:28.065Z,28.63
2019-03-25T06:37:59.009Z,28.27
2019-03-25T06:40:30.427Z,25.07
2019-03-25T06:43:01.325Z,26.83
2019-03-25T06:45:32.441Z,24.83
2019-03-25T06:48:03.283Z,21.73
2019-03-25T06:50:34.092Z,23.70
2019-03-25T06:53:04.956Z,22.53
2019-03-25T06:55:35.832Z,24.80
2019-03-25T06:58:07.362Z,23.10
2019-03-25T07:00:38.237Z,21.57
2019-03-25T07:03:10.257Z,23.10
2019-03-25T07:05:41.199Z,19.87
2019-03-25T07:08:11.939Z,17.67
2019-03-25T07:10:42.831Z,21.73
2019-03-25T07:13:13.601Z,20.90
2019-03-25T07:15:46.055Z,20.60
2019-03-25T07:18:16.747Z,19.90
2019-03-25T07:20:47.642Z,23.18
2019-03-25T07:23:18.545Z,20.03
2019-03-25T07:25:49.456Z,19.23
2019-03-25T07:28:20.304Z,16.20
2019-03-25T07:30:51.182Z,17.73
2019-03-25T07:33:22.023Z,17.53
2019-03-25T07:35:52.745Z,17.30
2019-03-25T07:38:23.523Z,16.30
2019-03-25T07:40:55.258Z,18.07
2019-03-25T07:43:26.079Z,15.40
2019-03-25T07:45:56.923Z,14.63
2019-03-25T07:48:27.641Z,15.63
2019-03-25T07:50:58.612Z,17.83
2019-03-25T07:53:29.550Z,13.97
2019-03-25T07:56:00.448Z,15.97
2019-03-25T07:58:31.237Z,14.50
2019-03-25T08:01:02.084Z,15.23
2019-03-25T08:03:32.888Z,16.07
2019-03-25T08:06:03.686Z,13.53
2019-03-25T08:08:34.409Z,13.00
2019-03-25T08:11:05.477Z,12.20
2019-03-25T08:13:36.243Z,11.77
2019-03-25T08:16:07.133Z,15.87
2019-03-25T08:18:38.088Z,14.10
2019-03-25T08:21:09.097Z,14.23
2019-03-25T08:23:39.952Z,13.10
2019-03-25T08:26:11.314Z,11.95
2019-03-25T08:28:43.284Z,11.17
2019-03-25T08:31:14.167Z,11.20
2019-03-25T08:33:45.093Z,12.80
2019-03-25T08:36:16.195Z,12.43
2019-03-25T08:38:47.067Z,12.10
2019-03-25T08:41:17.935Z,12.40
2019-03-25T08:43:50.407Z,12.03
2019-03-25T08:46:21.337Z,10.80
2019-03-25T08:48:53.044Z,11.50
2019-03-25T08:51:23.830Z,12.43
2019-03-25T08:53:54.563Z,12.87
2019-03-25T08:56:25.435Z,9.63
2019-03-25T08:58:56.319Z,8.90
2019-03-25T09:01:27.258Z,11.90
2019-03-25T09:03:58.057Z,9.17
2019-03-25T09:06:29.099Z,11.10
2019-03-25T09:09:00.025Z,9.20
2019-03-25T09:11:30.780Z,9.63
2019-03-25T09:14:02.342Z,8.90
2019-03-25T09:16:33.349Z,10.47
2019-03-25T09:19:04.126Z,8.57
2019-03-25T09:21:35.104Z,10.00
2019-03-25T09:24:06.057Z,9.07
2019-03-25T09:26:36.918Z,9.20
2019-03-25T09:29:07.857Z,8.40
2019-03-25T09:31:38.926Z,9.90
2019-03-25T09:34:09.868Z,10.10
2019-03-25T09:36:40.742Z,9.80
2019-03-25T09:39:12.619Z,7.70
2019-03-25T09:41:43.433Z,6.80
2019-03-25T09:44:14.273Z,8.80
2019-03-25T09:46:45.301Z,8.10
2019-03-25T09:49:16.183Z,7.10
2019-03-25T09:51:47.129Z,7.03
2019-03-25T09:54:18.070Z,7.90
2019-03-25T09:56:50.081Z,7.23
2019-03-25T09:59:20.862Z,7.43
2019-03-25T10:01:51.796Z,7.03
2019-03-25T10:04:22.717Z,7.37
2019-03-25T10:06:53.680Z,7.97
2019-03-25T10:09:24.529Z,8.47
2019-03-25T10:11:55.453Z,8.50
2019-03-25T10:14:26.239Z,6.70
2019-03-25T10:16:57.051Z,8.50
2019-03-25T10:19:27.844Z,7.43
2019-03-25T10:21:58.632Z,8.10
2019-03-25T10:24:29.585Z,7.07
2019-03-25T10:27:00.395Z,8.90
2019-03-25T10:29:31.183Z,9.03
2019-03-25T10:32:02.116Z,7.70
2019-03-25T10:34:33.007Z,8.17
2019-03-25T10:37:03.866Z,7.43
2019-03-25T10:39:36.937Z,8.80
2019-03-25T10:42:07.894Z,4.47
2019-03-25T10:44:38.845Z,5.60
2019-03-25T10:47:09.688Z,5.30
2019-03-25T10:49:40.650Z,4.30
2019-03-25T10:52:11.698Z,5.10
2019-03-25T10:54:43.746Z,4.90
2019-03-25T10:57:14.818Z,4.43
2019-03-25T10:59:45.708Z,5.15
2019-03-25T11:02:16.785Z,4.33
2019-03-25T11:04:47.588Z,3.63
2019-03-25T11:07:18.688Z,4.80
2019-03-25T11:09:49.598Z,5.45
2019-03-25T11:12:20.512Z,5.35
2019-03-25T11:14:51.377Z,4.60
2019-03-25T11:17:22.268Z,5.17
2019-03-25T11:19:53.070Z,4.03
2019-03-25T11:22:25.432Z,4.10
2019-03-25T11:24:56.328Z,3.83
2019-03-25T11:27:27.201Z,3.37
2019-03-25T11:29:57.999Z,4.00
2019-03-25T11:32:28.938Z,4.17
2019-03-25T11:34:59.900Z,3.70
2019-03-25T11:37:30.883Z,2.97
2019-03-25T11:40:01.928Z,3.40
2019-03-25T11:42:32.932Z,2.40
2019-03-25T11:45:03.912Z,2.73
2019-03-25T11:47:34.879Z,3.27
2019-03-25T11:50:06.238Z,2.37
2019-03-25T11:52:37.077Z,3.80
2019-03-25T11:55:08.658Z,3.00
2019-03-25T11:57:39.517Z,4.00
2019-03-25T12:00:10.875Z,2.80
2019-03-25T12:02:41.773Z,2.60
2019-03-25T12:05:13.592Z,3.47
2019-03-25T12:07:44.776Z,3.52
2019-03-25T12:10:16.154Z,3.40
2019-03-25T12:12:47.029Z,4.00
2019-03-25T12:15:17.964Z,3.20
2019-03-25T12:17:48.820Z,4.20
2019-03-25T12:20:19.764Z,2.97
2019-03-25T12:22:51.280Z,3.90
2019-03-25T12:25:22.086Z,4.07
2019-03-25T12:27:53.003Z,3.70
2019-03-25T12:30:24.239Z,2.73
2019-03-25T12:33:03.646Z,3.90
2019-03-25T12:35:27.952Z,4.10
2019-03-25T12:37:58.977Z,3.40
2019-03-25T12:40:29.849Z,3.37
2019-03-25T12:43:00.715Z,4.10
2019-03-25T12:45:31.746Z,2.93
2019-03-25T12:48:02.623Z,2.40
2019-03-25T12:50:33.581Z,3.37
2019-03-25T12:53:04.624Z,3.33
2019-03-25T12:55:35.741Z,3.30
2019-03-25T12:58:07.643Z,3.13
2019-03-25T13:00:43.899Z,3.50
2019-03-25T13:03:15.542Z,3.37
2019-03-25T13:05:46.556Z,3.20
2019-03-25T13:08:17.483Z,3.67
2019-03-25T13:10:48.642Z,2.60
2019-03-25T13:13:19.534Z,2.90
2019-03-25T13:15:50.391Z,4.27
2019-03-25T13:18:21.097Z,4.70
2019-03-25T13:20:51.949Z,3.77
2019-03-25T13:23:22.819Z,4.27
2019-03-25T13:25:53.783Z,4.43
2019-03-25T13:28:24.575Z,4.50
2019-03-25T13:30:56.635Z,4.03
2019-03-25T13:33:29.481Z,4.17
2019-03-25T13:36:00.193Z,4.00
2019-03-25T13:38:30.959Z,4.20
2019-03-25T13:41:01.760Z,4.97
2019-03-25T13:43:32.589Z,4.00
2019-03-25T13:46:05.696Z,3.87
2019-03-25T13:48:36.843Z,5.20
2019-03-25T13:51:07.977Z,4.07
2019-03-25T13:53:38.777Z,3.13
2019-03-25T13:56:09.717Z,4.00
2019-03-25T13:58:40.456Z,3.80
2019-03-25T14:01:11.376Z,3.60
2019-03-25T14:03:42.171Z,3.30
2019-03-25T14:06:12.954Z,3.50
2019-03-25T14:08:43.740Z,2.37
2019-03-25T14:11:14.684Z,3.37
2019-03-25T14:13:50.926Z,3.53
2019-03-25T14:16:21.983Z,2.90
2019-03-25T14:18:52.849Z,2.47
2019-03-25T14:21:23.779Z,3.93
2019-03-25T14:23:54.565Z,2.87
2019-03-25T14:26:25.545Z,2.40
2019-03-25T14:28:56.272Z,3.47
2019-03-25T14:31:26.970Z,3.97
2019-03-25T14:33:57.773Z,3.50
2019-03-25T14:36:28.834Z,5.57
2019-03-25T14:38:59.638Z,5.80
2019-03-25T14:41:30.523Z,3.83
2019-03-25T14:44:01.586Z,4.60
2019-03-25T14:46:32.425Z,4.90
2019-03-25T14:49:03.324Z,5.03
2019-03-25T14:51:34.143Z,4.97
2019-03-25T14:54:05.011Z,5.00
2019-03-25T14:56:36.922Z,5.50
2019-03-25T14:59:07.847Z,4.60
2019-03-25T15:01:38.623Z,5.95
2019-03-25T15:04:09.497Z,5.17
2019-03-25T15:06:40.341Z,5.60
2019-03-25T15:09:11.377Z,7.00
2019-03-25T15:11:42.316Z,6.00
2019-03-25T15:14:13.126Z,5.33
2019-03-25T15:16:44.082Z,4.83
2019-03-25T15:19:14.776Z,5.13
2019-03-25T15:21:45.593Z,4.10
2019-03-25T15:24:16.379Z,4.67
2019-03-25T15:26:47.829Z,4.40
2019-03-25T15:29:18.717Z,3.77
2019-03-25T15:31:49.571Z,3.40
2019-03-25T15:34:20.439Z,3.40
2019-03-25T15:36:51.327Z,3.03
2019-03-25T15:39:22.127Z,3.03
2019-03-25T15:41:52.948Z,3.07
2019-03-25T15:44:23.736Z,2.63
2019-03-25T15:46:55.942Z,3.57
2019-03-25T15:49:26.903Z,2.97
2019-03-25T15:51:57.858Z,3.53
2019-03-25T15:54:28.638Z,3.00
2019-03-25T15:56:59.809Z,3.03
2019-03-25T15:59:30.903Z,2.90
2019-03-25T16:02:01.870Z,3.73
2019-03-25T16:04:33.550Z,3.57
2019-03-25T16:07:06.424Z,3.67
2019-03-25T16:09:38.784Z,3.50
2019-03-25T16:12:10.680Z,3.23
2019-03-25T16:14:44.001Z,3.90
2019-03-25T16:17:16.555Z,3.90
2019-03-25T16:19:48.899Z,4.42
2019-03-25T16:22:23.293Z,4.37
2019-03-25T16:24:56.410Z,4.87
2019-03-25T16:27:28.399Z,4.43
2019-03-25T16:30:01.131Z,6.43
2019-03-25T16:32:32.556Z,4.60
2019-03-25T16:35:04.473Z,4.20
2019-03-25T16:37:36.198Z,6.20
2019-03-25T16:40:09.266Z,4.90
2019-03-25T16:42:41.664Z,5.90
2019-03-25T16:45:15.221Z,5.87
2019-03-25T16:47:49.253Z,3.20
2019-03-25T16:50:20.790Z,3.65
2019-03-25T16:52:53.369Z,3.13
2019-03-25T16:55:26.252Z,2.75
2019-03-25T16:58:00.220Z,3.23
2019-03-25T17:00:32.163Z,3.00
2019-03-25T17:03:03.659Z,2.73
2019-03-25T17:05:35.278Z,2.70
2019-03-25T17:08:07.567Z,3.15
2019-03-25T17:10:39.809Z,3.40
2019-03-25T17:13:12.010Z,2.90
2019-03-25T17:15:45.221Z,3.83
2019-03-25T17:18:17.441Z,3.33
2019-03-25T17:20:48.890Z,2.85
2019-03-25T17:23:21.628Z,4.80
2019-03-25T17:25:53.940Z,3.13
2019-03-25T17:28:28.680Z,3.55
2019-03-25T17:31:02.983Z,3.23
2019-03-25T17:33:38.099Z,3.60
2019-03-25T17:36:10.824Z,3.40
2019-03-25T17:38:42.394Z,3.37
2019-03-25T17:41:14.374Z,2.90
2019-03-25T17:43:47.833Z,2.70
2019-03-25T17:46:19.297Z,3.10
2019-03-25T17:48:52.125Z,2.80
2019-03-25T17:51:24.511Z,2.60
2019-03-25T17:53:57.598Z,3.20
2019-03-25T17:56:29.919Z,3.80
2019-03-25T17:59:04.500Z,3.60
2019-03-25T18:01:37.819Z,3.50
2019-03-25T18:04:11.080Z,3.13
2019-03-25T18:06:42.918Z,3.87
2019-03-25T18:09:14.888Z,3.13
2019-03-25T18:11:47.272Z,4.10
2019-03-25T18:14:19.551Z,4.08
2019-03-25T18:16:51.305Z,3.10
2019-03-25T18:22:21.007Z,3.50
2019-03-25T18:24:51.904Z,3.33
2019-03-25T18:27:22.755Z,3.33
2019-03-25T18:29:53.518Z,3.07
2019-03-25T18:32:24.333Z,3.97
2019-03-25T18:34:56.139Z,3.50
2019-03-25T18:37:26.946Z,3.73
2019-03-25T18:39:57.779Z,3.90
2019-03-25T18:42:28.588Z,3.30
2019-03-25T18:44:59.379Z,4.67
2019-03-25T18:47:30.311Z,4.40
2019-03-25T18:50:01.182Z,4.60
2019-03-25T18:52:32.254Z,4.77
2019-03-25T18:55:03.207Z,4.80
2019-03-25T18:57:34.297Z,4.13
2019-03-25T19:00:07.565Z,4.70
2019-03-25T19:02:38.522Z,3.20
2019-03-25T19:05:09.985Z,4.50
2019-03-25T19:07:44.281Z,5.15
2019-03-25T19:10:21.086Z,5.13
2019-03-25T19:12:51.884Z,5.12
2019-03-25T19:15:22.808Z,5.40
2019-03-25T19:17:54.690Z,4.40
2019-03-25T19:20:25.434Z,4.20
2019-03-25T19:22:56.130Z,3.67
2019-03-25T19:25:27.404Z,4.90
2019-03-25T19:27:58.678Z,4.10
2019-03-25T19:30:29.587Z,5.67
2019-03-25T19:33:00.534Z,5.13
2019-03-25T19:35:31.404Z,4.10
2019-03-25T19:38:02.332Z,4.67
2019-03-25T19:40:33.146Z,4.22
2019-03-25T19:43:03.956Z,4.57
2019-03-25T19:45:34.854Z,4.90
2019-03-25T19:48:05.719Z,3.90
2019-03-25T19:50:36.538Z,4.53
2019-03-25T19:53:18.623Z,4.75
2019-03-25T19:55:40.070Z,3.80
2019-03-25T19:58:10.917Z,3.60
2019-03-25T20:00:42.447Z,3.00
2019-03-25T20:03:13.380Z,3.07
2019-03-25T20:05:44.145Z,3.30
2019-03-25T20:08:15.166Z,3.17
2019-03-25T20:10:45.961Z,2.67
2019-03-25T20:13:16.877Z,2.70
2019-03-25T20:15:47.879Z,2.40
2019-03-25T20:18:20.822Z,2.10
2019-03-25T20:20:51.702Z,3.10
2019-03-25T20:23:22.613Z,2.80
2019-03-25T20:25:53.471Z,2.63
2019-03-25T20:28:24.366Z,2.53
2019-03-25T20:30:55.539Z,2.30
2019-03-25T20:33:26.557Z,2.30
2019-03-25T20:35:57.552Z,2.23
2019-03-25T20:38:28.456Z,2.93
2019-03-25T20:40:59.231Z,2.43
2019-03-25T20:43:30.071Z,2.67
2019-03-25T20:46:00.967Z,2.95
2019-03-25T20:48:31.799Z,3.23
2019-03-25T20:51:02.842Z,3.00
2019-03-25T20:53:33.622Z,3.40
2019-03-25T20:56:04.686Z,4.13
2019-03-25T20:58:35.535Z,3.70
2019-03-25T21:01:06.504Z,4.30
2019-03-25T21:03:37.360Z,4.13
2019-03-25T21:06:08.325Z,4.03
2019-03-25T21:08:40.577Z,4.70
2019-03-25T21:11:11.823Z,4.30
2019-03-25T21:13:42.742Z,4.70
2019-03-25T21:16:13.929Z,4.77
2019-03-25T21:18:44.795Z,4.87
2019-03-25T21:21:15.873Z,6.30
2019-03-25T21:23:46.719Z,5.47
2019-03-25T21:26:17.760Z,5.63
2019-03-25T21:28:48.647Z,6.53
2019-03-25T21:31:20.288Z,6.25
2019-03-25T21:33:51.187Z,6.70
2019-03-25T21:36:22.263Z,6.47
2019-03-25T21:38:53.349Z,6.50
2019-03-25T21:41:24.214Z,5.30
2019-03-25T21:43:55.202Z,6.92
2019-03-25T21:46:25.957Z,6.45
2019-03-25T21:48:56.893Z,6.35
2019-03-25T21:51:28.795Z,7.42
2019-03-25T21:53:59.674Z,6.13
2019-03-25T21:56:30.503Z,5.78
2019-03-25T21:59:01.279Z,6.50
2019-03-25T22:01:32.175Z,5.00
2019-03-25T22:04:02.924Z,6.77
2019-03-25T22:06:33.793Z,5.67
2019-03-25T22:09:06.483Z,5.63
2019-03-25T22:11:37.274Z,6.70
2019-03-25T22:14:08.176Z,6.70
2019-03-25T22:16:39.175Z,5.33
2019-03-25T22:19:10.041Z,5.50
2019-03-25T22:21:40.860Z,5.50
2019-03-25T22:24:11.574Z,5.20
2019-03-25T22:26:42.381Z,5.40
2019-03-25T22:29:13.267Z,4.87
2019-03-25T22:31:44.137Z,5.30
2019-03-25T22:34:15.555Z,5.80
2019-03-25T22:36:46.345Z,5.13
2019-03-25T22:39:17.055Z,6.10
2019-03-25T22:41:48.133Z,5.65
2019-03-25T22:44:19.108Z,5.63
2019-03-25T22:46:51.016Z,4.85
2019-03-25T22:49:21.898Z,5.70
2019-03-25T22:51:52.695Z,5.70
2019-03-25T22:54:23.447Z,6.73
2019-03-25T22:56:54.421Z,5.20
2019-03-25T22:59:26.070Z,5.00
2019-03-25T23:01:57.139Z,6.37
2019-03-25T23:04:27.926Z,6.03
2019-03-25T23:06:58.865Z,6.13
2019-03-25T23:09:29.629Z,4.83
2019-03-25T23:12:00.752Z,5.20
2019-03-25T23:14:31.661Z,6.27
2019-03-25T23:17:03.538Z,4.70
2019-03-25T23:19:34.494Z,5.07
2019-03-25T23:22:05.452Z,6.00
2019-03-25T23:24:36.310Z,5.50
2019-03-25T23:27:07.328Z,5.20
2019-03-25T23:29:38.119Z,4.87
2019-03-25T23:32:08.914Z,5.20
2019-03-25T23:34:39.751Z,5.13
2019-03-25T23:37:10.557Z,4.10
2019-03-25T23:39:41.417Z,5.57
2019-03-25T23:42:14.424Z,5.80
2019-03-25T23:44:45.216Z,4.10
2019-03-25T23:47:16.201Z,10.90
2019-03-25T23:49:46.997Z,5.60
2019-03-25T23:52:17.862Z,4.57
2019-03-25T23:54:48.638Z,4.80
2019-03-25T23:57:19.599Z,5.92
2019-03-25T23:59:52.188Z,5.60
